sensor_id;sensor_type;location;lat;lon;timestamp;temperature;humidity
48806;DHT22;34625;47.176;27.548;2022-08-24T00:01:21;28.80;60.10
48806;DHT22;34625;47.176;27.548;2022-08-24T00:03:48;28.90;60.10
48806;DHT22;34625;47.176;27.548;2022-08-24T00:06:18;28.80;60.10
48806;DHT22;34625;47.176;27.548;2022-08-24T00:08:46;28.80;60.00
48806;DHT22;34625;47.176;27.548;2022-08-24T00:11:13;28.90;60.10
48806;DHT22;34625;47.176;27.548;2022-08-24T00:13:39;28.80;60.20
48806;DHT22;34625;47.176;27.548;2022-08-24T00:16:07;29.00;60.70
48806;DHT22;34625;47.176;27.548;2022-08-24T00:18:34;28.80;60.20
48806;DHT22;34625;47.176;27.548;2022-08-24T00:21:01;28.80;60.20
48806;DHT22;34625;47.176;27.548;2022-08-24T00:23:28;28.90;60.30
48806;DHT22;34625;47.176;27.548;2022-08-24T00:25:54;28.90;60.30
48806;DHT22;34625;47.176;27.548;2022-08-24T00:28:21;28.80;60.20
48806;DHT22;34625;47.176;27.548;2022-08-24T00:30:47;28.80;60.20
48806;DHT22;34625;47.176;27.548;2022-08-24T00:33:13;28.90;60.20
48806;DHT22;34625;47.176;27.548;2022-08-24T00:35:39;28.90;60.20
48806;DHT22;34625;47.176;27.548;2022-08-24T00:38:05;28.80;60.30
48806;DHT22;34625;47.176;27.548;2022-08-24T00:40:35;28.80;60.10
48806;DHT22;34625;47.176;27.548;2022-08-24T00:43:05;29.00;60.80
48806;DHT22;34625;47.176;27.548;2022-08-24T00:45:34;28.80;60.30
48806;DHT22;34625;47.176;27.548;2022-08-24T00:48:05;28.80;60.20
48806;DHT22;34625;47.176;27.548;2022-08-24T00:53:01;28.90;60.20
48806;DHT22;34625;47.176;27.548;2022-08-24T00:55:41;28.90;60.20
48806;DHT22;34625;47.176;27.548;2022-08-24T00:58:13;28.90;60.20
48806;DHT22;34625;47.176;27.548;2022-08-24T01:00:44;28.80;60.30
48806;DHT22;34625;47.176;27.548;2022-08-24T01:03:11;28.60;60.30
48806;DHT22;34625;47.176;27.548;2022-08-24T01:05:39;28.70;60.40
48806;DHT22;34625;47.176;27.548;2022-08-24T01:08:08;28.70;60.50
48806;DHT22;34625;47.176;27.548;2022-08-24T01:10:43;28.60;60.60
48806;DHT22;34625;47.176;27.548;2022-08-24T01:13:12;28.70;60.70
48806;DHT22;34625;47.176;27.548;2022-08-24T01:15:43;28.70;60.80
48806;DHT22;34625;47.176;27.548;2022-08-24T01:18:22;28.50;60.80
48806;DHT22;34625;47.176;27.548;2022-08-24T01:26:14;28.50;61.10
48806;DHT22;34625;47.176;27.548;2022-08-24T01:28:45;28.60;61.10
48806;DHT22;34625;47.176;27.548;2022-08-24T01:31:12;28.50;61.10
48806;DHT22;34625;47.176;27.548;2022-08-24T01:33:38;28.60;61.10
48806;DHT22;34625;47.176;27.548;2022-08-24T01:36:12;28.60;61.10
48806;DHT22;34625;47.176;27.548;2022-08-24T01:38:40;28.70;61.10
48806;DHT22;34625;47.176;27.548;2022-08-24T01:41:06;28.50;61.10
48806;DHT22;34625;47.176;27.548;2022-08-24T01:43:32;28.50;61.00
48806;DHT22;34625;47.176;27.548;2022-08-24T01:45:58;28.70;61.10
48806;DHT22;34625;47.176;27.548;2022-08-24T01:48:24;28.60;61.00
48806;DHT22;34625;47.176;27.548;2022-08-24T01:50:52;28.60;61.10
48806;DHT22;34625;47.176;27.548;2022-08-24T01:53:21;28.50;61.10
48806;DHT22;34625;47.176;27.548;2022-08-24T01:55:47;28.60;61.10
48806;DHT22;34625;47.176;27.548;2022-08-24T01:58:13;28.50;61.10
48806;DHT22;34625;47.176;27.548;2022-08-24T02:00:43;28.60;61.10
48806;DHT22;34625;47.176;27.548;2022-08-24T02:03:10;28.50;61.10
48806;DHT22;34625;47.176;27.548;2022-08-24T02:05:36;28.60;61.20
48806;DHT22;34625;47.176;27.548;2022-08-24T02:08:02;28.50;61.20
48806;DHT22;34625;47.176;27.548;2022-08-24T02:10:29;28.40;61.20
48806;DHT22;34625;47.176;27.548;2022-08-24T02:12:57;28.50;61.30
48806;DHT22;34625;47.176;27.548;2022-08-24T02:15:30;28.40;61.20
48806;DHT22;34625;47.176;27.548;2022-08-24T02:17:58;28.50;61.30
48806;DHT22;34625;47.176;27.548;2022-08-24T02:20:25;28.30;61.40
48806;DHT22;34625;47.176;27.548;2022-08-24T02:22:52;28.20;61.40
48806;DHT22;34625;47.176;27.548;2022-08-24T02:25:19;28.30;61.80
48806;DHT22;34625;47.176;27.548;2022-08-24T02:27:45;28.40;61.90
48806;DHT22;34625;47.176;27.548;2022-08-24T02:30:12;28.20;61.90
48806;DHT22;34625;47.176;27.548;2022-08-24T02:32:39;28.40;61.90
48806;DHT22;34625;47.176;27.548;2022-08-24T02:35:08;28.30;61.90
48806;DHT22;34625;47.176;27.548;2022-08-24T02:37:34;28.20;61.80
48806;DHT22;34625;47.176;27.548;2022-08-24T02:40:00;28.40;61.80
48806;DHT22;34625;47.176;27.548;2022-08-24T02:42:27;28.30;61.80
48806;DHT22;34625;47.176;27.548;2022-08-24T02:44:53;28.30;61.90
48806;DHT22;34625;47.176;27.548;2022-08-24T02:47:20;28.40;61.50
48806;DHT22;34625;47.176;27.548;2022-08-24T02:49:46;28.40;61.80
48806;DHT22;34625;47.176;27.548;2022-08-24T02:52:13;28.50;61.80
48806;DHT22;34625;47.176;27.548;2022-08-24T02:54:40;28.40;61.80
48806;DHT22;34625;47.176;27.548;2022-08-24T02:57:06;28.50;61.80
48806;DHT22;34625;47.176;27.548;2022-08-24T02:59:33;28.30;61.80
48806;DHT22;34625;47.176;27.548;2022-08-24T03:01:59;28.30;61.50
48806;DHT22;34625;47.176;27.548;2022-08-24T03:04:25;28.40;61.40
48806;DHT22;34625;47.176;27.548;2022-08-24T03:06:51;28.40;61.40
48806;DHT22;34625;47.176;27.548;2022-08-24T03:09:18;28.30;61.50
48806;DHT22;34625;47.176;27.548;2022-08-24T03:11:44;28.40;61.40
48806;DHT22;34625;47.176;27.548;2022-08-24T03:14:10;28.30;61.50
48806;DHT22;34625;47.176;27.548;2022-08-24T03:16:36;28.30;61.50
48806;DHT22;34625;47.176;27.548;2022-08-24T03:19:03;28.30;61.50
48806;DHT22;34625;47.176;27.548;2022-08-24T03:21:33;28.30;61.80
48806;DHT22;34625;47.176;27.548;2022-08-24T03:23:59;28.30;61.90
48806;DHT22;34625;47.176;27.548;2022-08-24T03:26:26;28.40;61.90
48806;DHT22;34625;47.176;27.548;2022-08-24T03:28:53;28.30;61.90
48806;DHT22;34625;47.176;27.548;2022-08-24T03:31:19;28.20;62.10
48806;DHT22;34625;47.176;27.548;2022-08-24T03:33:47;28.20;62.00
48806;DHT22;34625;47.176;27.548;2022-08-24T03:36:13;28.20;62.00
48806;DHT22;34625;47.176;27.548;2022-08-24T03:38:40;28.20;62.00
48806;DHT22;34625;47.176;27.548;2022-08-24T03:41:07;28.30;62.00
48806;DHT22;34625;47.176;27.548;2022-08-24T03:43:33;28.30;62.00
48806;DHT22;34625;47.176;27.548;2022-08-24T03:46:17;28.20;62.00
48806;DHT22;34625;47.176;27.548;2022-08-24T03:48:46;28.20;62.00
48806;DHT22;34625;47.176;27.548;2022-08-24T03:51:17;28.20;61.90
48806;DHT22;34625;47.176;27.548;2022-08-24T03:53:46;28.30;61.90
48806;DHT22;34625;47.176;27.548;2022-08-24T03:56:13;28.20;61.90
48806;DHT22;34625;47.176;27.548;2022-08-24T03:58:39;28.30;61.80
48806;DHT22;34625;47.176;27.548;2022-08-24T04:01:07;28.30;61.90
48806;DHT22;34625;47.176;27.548;2022-08-24T04:03:38;28.30;61.90
48806;DHT22;34625;47.176;27.548;2022-08-24T04:06:07;28.20;61.80
48806;DHT22;34625;47.176;27.548;2022-08-24T04:08:34;28.20;61.30
48806;DHT22;34625;47.176;27.548;2022-08-24T04:11:02;28.30;61.20
48806;DHT22;34625;47.176;27.548;2022-08-24T04:13:29;28.40;61.10
48806;DHT22;34625;47.176;27.548;2022-08-24T04:16:02;28.50;61.00
48806;DHT22;34625;47.176;27.548;2022-08-24T04:18:29;28.40;61.00
48806;DHT22;34625;47.176;27.548;2022-08-24T04:20:55;28.40;60.90
48806;DHT22;34625;47.176;27.548;2022-08-24T04:23:21;28.40;61.00
48806;DHT22;34625;47.176;27.548;2022-08-24T04:25:48;28.30;61.10
48806;DHT22;34625;47.176;27.548;2022-08-24T04:28:18;28.40;61.20
48806;DHT22;34625;47.176;27.548;2022-08-24T04:30:46;28.20;61.30
48806;DHT22;34625;47.176;27.548;2022-08-24T04:33:24;28.40;61.30
48806;DHT22;34625;47.176;27.548;2022-08-24T04:35:50;28.20;61.40
48806;DHT22;34625;47.176;27.548;2022-08-24T04:38:17;28.30;61.40
48806;DHT22;34625;47.176;27.548;2022-08-24T04:40:57;28.40;61.40
48806;DHT22;34625;47.176;27.548;2022-08-24T04:43:23;28.30;61.40
48806;DHT22;34625;47.176;27.548;2022-08-24T04:45:51;28.30;61.40
48806;DHT22;34625;47.176;27.548;2022-08-24T04:48:18;28.30;61.40
48806;DHT22;34625;47.176;27.548;2022-08-24T04:50:45;28.30;61.20
48806;DHT22;34625;47.176;27.548;2022-08-24T04:53:12;28.50;61.00
48806;DHT22;34625;47.176;27.548;2022-08-24T04:55:48;28.50;61.00
48806;DHT22;34625;47.176;27.548;2022-08-24T04:58:17;28.40;61.00
48806;DHT22;34625;47.176;27.548;2022-08-24T05:00:44;28.50;60.90
48806;DHT22;34625;47.176;27.548;2022-08-24T05:03:11;28.60;60.90
48806;DHT22;34625;47.176;27.548;2022-08-24T05:05:47;28.50;60.80
48806;DHT22;34625;47.176;27.548;2022-08-24T05:08:15;28.50;60.80
48806;DHT22;34625;47.176;27.548;2022-08-24T05:10:43;28.70;60.70
48806;DHT22;34625;47.176;27.548;2022-08-24T05:13:11;28.60;60.60
48806;DHT22;34625;47.176;27.548;2022-08-24T05:15:44;28.60;60.60
48806;DHT22;34625;47.176;27.548;2022-08-24T05:18:10;28.50;60.60
48806;DHT22;34625;47.176;27.548;2022-08-24T05:20:41;28.70;60.60
48806;DHT22;34625;47.176;27.548;2022-08-24T05:23:08;28.60;60.60
48806;DHT22;34625;47.176;27.548;2022-08-24T05:25:35;28.60;60.50
48806;DHT22;34625;47.176;27.548;2022-08-24T05:28:02;28.70;60.50
48806;DHT22;34625;47.176;27.548;2022-08-24T05:30:29;28.60;60.40
48806;DHT22;34625;47.176;27.548;2022-08-24T05:32:55;28.60;60.40
48806;DHT22;34625;47.176;27.548;2022-08-24T05:35:21;28.60;60.40
48806;DHT22;34625;47.176;27.548;2022-08-24T05:37:47;28.60;60.40
48806;DHT22;34625;47.176;27.548;2022-08-24T05:40:16;28.60;60.50
48806;DHT22;34625;47.176;27.548;2022-08-24T05:42:47;28.60;60.50
48806;DHT22;34625;47.176;27.548;2022-08-24T05:45:14;28.60;60.50
48806;DHT22;34625;47.176;27.548;2022-08-24T05:47:41;28.50;60.50
48806;DHT22;34625;47.176;27.548;2022-08-24T05:50:27;28.60;60.50
48806;DHT22;34625;47.176;27.548;2022-08-24T05:52:54;28.70;60.40
48806;DHT22;34625;47.176;27.548;2022-08-24T05:55:20;28.60;60.40
48806;DHT22;34625;47.176;27.548;2022-08-24T05:57:46;28.70;60.40
48806;DHT22;34625;47.176;27.548;2022-08-24T06:00:18;28.70;60.40
48806;DHT22;34625;47.176;27.548;2022-08-24T06:02:48;28.70;60.40
48806;DHT22;34625;47.176;27.548;2022-08-24T06:05:18;28.80;60.40
48806;DHT22;34625;47.176;27.548;2022-08-24T06:07:45;28.80;60.40
48806;DHT22;34625;47.176;27.548;2022-08-24T06:10:12;28.60;60.30
48806;DHT22;34625;47.176;27.548;2022-08-24T06:12:38;28.70;60.30
48806;DHT22;34625;47.176;27.548;2022-08-24T06:15:04;28.70;60.30
48806;DHT22;34625;47.176;27.548;2022-08-24T06:17:31;28.70;60.30
48806;DHT22;34625;47.176;27.548;2022-08-24T06:19:58;28.70;60.30
48806;DHT22;34625;47.176;27.548;2022-08-24T06:22:24;28.70;60.30
48806;DHT22;34625;47.176;27.548;2022-08-24T06:24:51;28.70;60.30
48806;DHT22;34625;47.176;27.548;2022-08-24T06:27:35;28.50;60.30
48806;DHT22;34625;47.176;27.548;2022-08-24T06:30:07;28.70;60.20
48806;DHT22;34625;47.176;27.548;2022-08-24T06:32:58;28.70;60.30
48806;DHT22;34625;47.176;27.548;2022-08-24T06:35:45;28.70;60.10
48806;DHT22;34625;47.176;27.548;2022-08-24T06:38:12;28.60;60.30
48806;DHT22;34625;47.176;27.548;2022-08-24T06:40:38;28.50;60.30
48806;DHT22;34625;47.176;27.548;2022-08-24T06:43:04;28.60;60.30
48806;DHT22;34625;47.176;27.548;2022-08-24T06:45:44;28.60;60.30
48806;DHT22;34625;47.176;27.548;2022-08-24T06:48:11;28.50;59.80
48806;DHT22;34625;47.176;27.548;2022-08-24T06:50:38;28.60;60.30
48806;DHT22;34625;47.176;27.548;2022-08-24T06:53:05;28.50;60.30
48806;DHT22;34625;47.176;27.548;2022-08-24T06:55:32;28.50;60.40
48806;DHT22;34625;47.176;27.548;2022-08-24T06:57:58;28.50;60.10
48806;DHT22;34625;47.176;27.548;2022-08-24T07:00:24;28.60;60.40
48806;DHT22;34625;47.176;27.548;2022-08-24T07:02:51;28.40;60.40
48806;DHT22;34625;47.176;27.548;2022-08-24T07:05:17;28.60;60.40
48806;DHT22;34625;47.176;27.548;2022-08-24T07:08:03;28.60;60.50
48806;DHT22;34625;47.176;27.548;2022-08-24T07:10:30;28.50;60.60
48806;DHT22;34625;47.176;27.548;2022-08-24T07:12:57;28.50;60.60
48806;DHT22;34625;47.176;27.548;2022-08-24T07:15:23;28.70;60.60
48806;DHT22;34625;47.176;27.548;2022-08-24T07:18:04;28.60;60.50
48806;DHT22;34625;47.176;27.548;2022-08-24T07:20:37;28.70;60.60
48806;DHT22;34625;47.176;27.548;2022-08-24T07:23:08;28.60;60.60
48806;DHT22;34625;47.176;27.548;2022-08-24T07:25:35;28.60;60.60
48806;DHT22;34625;47.176;27.548;2022-08-24T07:28:02;28.60;60.60
48806;DHT22;34625;47.176;27.548;2022-08-24T07:30:28;28.70;60.50
48806;DHT22;34625;47.176;27.548;2022-08-24T07:32:57;28.70;60.50
48806;DHT22;34625;47.176;27.548;2022-08-24T07:35:26;28.60;60.50
48806;DHT22;34625;47.176;27.548;2022-08-24T07:37:53;28.80;60.50
48806;DHT22;34625;47.176;27.548;2022-08-24T07:40:22;28.70;60.40
48806;DHT22;34625;47.176;27.548;2022-08-24T07:42:49;28.70;60.40
48806;DHT22;34625;47.176;27.548;2022-08-24T07:45:18;28.70;60.40
48806;DHT22;34625;47.176;27.548;2022-08-24T07:47:48;28.60;60.40
48806;DHT22;34625;47.176;27.548;2022-08-24T07:50:36;28.70;60.30
48806;DHT22;34625;47.176;27.548;2022-08-24T07:53:02;28.70;60.00
48806;DHT22;34625;47.176;27.548;2022-08-24T07:55:29;28.80;60.30
48806;DHT22;34625;47.176;27.548;2022-08-24T07:57:55;28.80;60.30
48806;DHT22;34625;47.176;27.548;2022-08-24T08:00:21;28.90;60.30
48806;DHT22;34625;47.176;27.548;2022-08-24T08:02:53;28.80;60.20
48806;DHT22;34625;47.176;27.548;2022-08-24T08:05:21;28.90;60.20
48806;DHT22;34625;47.176;27.548;2022-08-24T08:07:50;28.90;60.10
48806;DHT22;34625;47.176;27.548;2022-08-24T08:10:17;28.90;60.00
48806;DHT22;34625;47.176;27.548;2022-08-24T08:12:45;28.80;60.10
48806;DHT22;34625;47.176;27.548;2022-08-24T08:15:11;28.90;60.00
48806;DHT22;34625;47.176;27.548;2022-08-24T08:17:44;28.90;60.00
48806;DHT22;34625;47.176;27.548;2022-08-24T08:20:12;29.00;60.50
48806;DHT22;34625;47.176;27.548;2022-08-24T08:22:38;29.00;60.50
48806;DHT22;34625;47.176;27.548;2022-08-24T08:25:32;28.90;59.90
48806;DHT22;34625;47.176;27.548;2022-08-24T08:28:03;29.00;60.40
48806;DHT22;34625;47.176;27.548;2022-08-24T08:30:31;29.00;60.40
48806;DHT22;34625;47.176;27.548;2022-08-24T08:32:57;29.00;60.40
48806;DHT22;34625;47.176;27.548;2022-08-24T08:35:23;29.00;60.30
48806;DHT22;34625;47.176;27.548;2022-08-24T08:37:51;29.00;60.30
48806;DHT22;34625;47.176;27.548;2022-08-24T08:43:49;29.00;60.30
48806;DHT22;34625;47.176;27.548;2022-08-24T08:49:10;29.00;60.20
48806;DHT22;34625;47.176;27.548;2022-08-24T09:00:10;29.00;60.00
48806;DHT22;34625;47.176;27.548;2022-08-24T09:11:26;29.10;60.00
48806;DHT22;34625;47.176;27.548;2022-08-24T09:22:18;28.90;59.50
48806;DHT22;34625;47.176;27.548;2022-08-24T09:30:55;29.00;60.00
48806;DHT22;34625;47.176;27.548;2022-08-24T09:36:07;29.00;59.50
48806;DHT22;34625;47.176;27.548;2022-08-24T09:55:59;29.00;59.60
48806;DHT22;34625;47.176;27.548;2022-08-24T10:01:40;29.00;59.90
48806;DHT22;34625;47.176;27.548;2022-08-24T10:12:50;29.00;60.00
48806;DHT22;34625;47.176;27.548;2022-08-24T10:15:25;29.00;60.00
48806;DHT22;34625;47.176;27.548;2022-08-24T10:21:17;29.00;60.00
48806;DHT22;34625;47.176;27.548;2022-08-24T10:38:33;29.00;60.00
48806;DHT22;34625;47.176;27.548;2022-08-24T10:46:59;28.90;59.50
48806;DHT22;34625;47.176;27.548;2022-08-24T10:54:34;29.10;60.10
48806;DHT22;34625;47.176;27.548;2022-08-24T11:00:12;28.90;59.50
48806;DHT22;34625;47.176;27.548;2022-08-24T11:02:42;28.90;59.40
48806;DHT22;34625;47.176;27.548;2022-08-24T11:05:26;28.90;59.50
48806;DHT22;34625;47.176;27.548;2022-08-24T11:07:57;28.90;59.50
48806;DHT22;34625;47.176;27.548;2022-08-24T11:10:27;29.00;60.10
48806;DHT22;34625;47.176;27.548;2022-08-24T11:12:54;28.80;59.60
48806;DHT22;34625;47.176;27.548;2022-08-24T11:15:26;28.90;59.60
48806;DHT22;34625;47.176;27.548;2022-08-24T11:18:00;28.90;59.60
48806;DHT22;34625;47.176;27.548;2022-08-24T11:20:32;28.90;59.60
48806;DHT22;34625;47.176;27.548;2022-08-24T11:23:06;28.90;59.60
48806;DHT22;34625;47.176;27.548;2022-08-24T11:25:36;28.90;59.60
48806;DHT22;34625;47.176;27.548;2022-08-24T11:28:37;28.90;59.60
48806;DHT22;34625;47.176;27.548;2022-08-24T11:31:12;29.00;60.20
48806;DHT22;34625;47.176;27.548;2022-08-24T11:33:48;29.00;60.20
48806;DHT22;34625;47.176;27.548;2022-08-24T11:36:21;28.90;59.60
48806;DHT22;34625;47.176;27.548;2022-08-24T11:39:10;29.00;60.20
48806;DHT22;34625;47.176;27.548;2022-08-24T11:52:54;29.10;60.10
48806;DHT22;34625;47.176;27.548;2022-08-24T11:55:45;29.10;60.10
48806;DHT22;34625;47.176;27.548;2022-08-24T12:04:17;29.00;60.10
48806;DHT22;34625;47.176;27.548;2022-08-24T12:07:02;29.00;60.20
48806;DHT22;34625;47.176;27.548;2022-08-24T12:12:44;28.80;59.60
48806;DHT22;34625;47.176;27.548;2022-08-24T12:18:21;28.90;59.60
48806;DHT22;34625;47.176;27.548;2022-08-24T12:20:49;28.90;59.70
48806;DHT22;34625;47.176;27.548;2022-08-24T12:26:02;28.80;59.70
48806;DHT22;34625;47.176;27.548;2022-08-24T12:28:43;28.80;59.80
48806;DHT22;34625;47.176;27.548;2022-08-24T12:31:28;29.00;60.30
48806;DHT22;34625;47.176;27.548;2022-08-24T12:34:02;28.80;59.80
48806;DHT22;34625;47.176;27.548;2022-08-24T12:36:30;28.90;59.80
48806;DHT22;34625;47.176;27.548;2022-08-24T12:39:14;29.00;60.30
48806;DHT22;34625;47.176;27.548;2022-08-24T12:44:37;29.00;60.30
48806;DHT22;34625;47.176;27.548;2022-08-24T12:47:05;29.00;60.30
48806;DHT22;34625;47.176;27.548;2022-08-24T12:49:43;29.00;60.30
48806;DHT22;34625;47.176;27.548;2022-08-24T12:55:20;28.90;59.70
48806;DHT22;34625;47.176;27.548;2022-08-24T12:58:01;28.90;59.70
48806;DHT22;34625;47.176;27.548;2022-08-24T13:00:34;29.10;60.20
48806;DHT22;34625;47.176;27.548;2022-08-24T13:03:07;29.10;60.20
48806;DHT22;34625;47.176;27.548;2022-08-24T13:05:43;29.10;60.20
48806;DHT22;34625;47.176;27.548;2022-08-24T13:08:16;29.00;60.30
48806;DHT22;34625;47.176;27.548;2022-08-24T13:11:02;29.00;60.30
48806;DHT22;34625;47.176;27.548;2022-08-24T13:21:57;29.00;60.30
48806;DHT22;34625;47.176;27.548;2022-08-24T13:29:48;28.90;59.80
48806;DHT22;34625;47.176;27.548;2022-08-24T13:32:35;28.90;59.90
48806;DHT22;34625;47.176;27.548;2022-08-24T13:38:54;28.80;59.80
48806;DHT22;34625;47.176;27.548;2022-08-24T13:44:12;28.80;59.80
48806;DHT22;34625;47.176;27.548;2022-08-24T13:52:17;28.90;59.80
48806;DHT22;34625;47.176;27.548;2022-08-24T13:57:44;29.00;60.30
48806;DHT22;34625;47.176;27.548;2022-08-24T14:00:38;28.90;59.80
48806;DHT22;34625;47.176;27.548;2022-08-24T14:05:58;29.00;60.30
48806;DHT22;34625;47.176;27.548;2022-08-24T14:11:20;29.00;60.30
48806;DHT22;34625;47.176;27.548;2022-08-24T14:25:25;29.00;60.30
48806;DHT22;34625;47.176;27.548;2022-08-24T14:40:50;28.80;59.80
48806;DHT22;34625;47.176;27.548;2022-08-24T14:46:25;28.80;59.80
48806;DHT22;34625;47.176;27.548;2022-08-24T14:55:18;29.00;60.40
48806;DHT22;34625;47.176;27.548;2022-08-24T15:06:35;29.00;60.40
48806;DHT22;34625;47.176;27.548;2022-08-24T15:11:36;29.00;60.30
48806;DHT22;34625;47.176;27.548;2022-08-24T15:14:07;29.10;60.30
48806;DHT22;34625;47.176;27.548;2022-08-24T15:16:45;29.00;60.30
48806;DHT22;34625;47.176;27.548;2022-08-24T15:22:07;28.90;59.70
48806;DHT22;34625;47.176;27.548;2022-08-24T15:24:54;28.90;59.70
48806;DHT22;34625;47.176;27.548;2022-08-24T15:30:36;29.00;60.30
48806;DHT22;34625;47.176;27.548;2022-08-24T15:33:16;29.00;60.30
48806;DHT22;34625;47.176;27.548;2022-08-24T15:36:02;28.90;59.80
48806;DHT22;34625;47.176;27.548;2022-08-24T15:41:16;28.80;59.80
48806;DHT22;34625;47.176;27.548;2022-08-24T15:43:52;28.80;59.80
48806;DHT22;34625;47.176;27.548;2022-08-24T15:46:31;28.80;59.80
48806;DHT22;34625;47.176;27.548;2022-08-24T15:52:03;29.00;60.40
48806;DHT22;34625;47.176;27.548;2022-08-24T15:54:42;28.90;59.90
48806;DHT22;34625;47.176;27.548;2022-08-24T16:18:18;29.00;60.30
48806;DHT22;34625;47.176;27.548;2022-08-24T16:20:45;29.00;60.30
48806;DHT22;34625;47.176;27.548;2022-08-24T16:23:24;29.00;60.30
48806;DHT22;34625;47.176;27.548;2022-08-24T16:26:22;28.90;59.70
48806;DHT22;34625;47.176;27.548;2022-08-24T16:28:50;29.00;60.30
48806;DHT22;34625;47.176;27.548;2022-08-24T16:31:51;28.90;59.70
48806;DHT22;34625;47.176;27.548;2022-08-24T16:34:22;28.90;59.80
48806;DHT22;34625;47.176;27.548;2022-08-24T16:36:48;28.80;59.70
48806;DHT22;34625;47.176;27.548;2022-08-24T16:39:14;28.90;59.70
48806;DHT22;34625;47.176;27.548;2022-08-24T16:41:41;28.90;59.70
48806;DHT22;34625;47.176;27.548;2022-08-24T16:44:07;28.80;59.70
48806;DHT22;34625;47.176;27.548;2022-08-24T16:46:35;28.80;59.80
48806;DHT22;34625;47.176;27.548;2022-08-24T16:49:02;29.00;60.40
48806;DHT22;34625;47.176;27.548;2022-08-24T16:51:28;28.90;59.80
48806;DHT22;34625;47.176;27.548;2022-08-24T16:53:54;28.80;59.80
48806;DHT22;34625;47.176;27.548;2022-08-24T16:56:20;28.90;59.80
48806;DHT22;34625;47.176;27.548;2022-08-24T16:58:47;28.80;59.80
48806;DHT22;34625;47.176;27.548;2022-08-24T17:01:14;29.00;60.30
48806;DHT22;34625;47.176;27.548;2022-08-24T17:03:40;28.90;59.80
48806;DHT22;34625;47.176;27.548;2022-08-24T17:06:07;29.00;60.40
48806;DHT22;34625;47.176;27.548;2022-08-24T17:08:37;29.00;60.30
48806;DHT22;34625;47.176;27.548;2022-08-24T17:11:04;29.00;60.30
48806;DHT22;34625;47.176;27.548;2022-08-24T17:13:31;28.90;59.80
48806;DHT22;34625;47.176;27.548;2022-08-24T17:15:57;29.00;60.40
48806;DHT22;34625;47.176;27.548;2022-08-24T17:18:24;28.90;59.80
48806;DHT22;34625;47.176;27.548;2022-08-24T17:20:51;29.00;60.30
48806;DHT22;34625;47.176;27.548;2022-08-24T17:23:17;29.00;60.30
48806;DHT22;34625;47.176;27.548;2022-08-24T17:25:43;29.00;60.30
48806;DHT22;34625;47.176;27.548;2022-08-24T17:28:12;29.00;60.30
48806;DHT22;34625;47.176;27.548;2022-08-24T17:30:40;29.00;60.30
48806;DHT22;34625;47.176;27.548;2022-08-24T17:33:07;28.90;59.70
48806;DHT22;34625;47.176;27.548;2022-08-24T17:35:33;28.90;59.70
48806;DHT22;34625;47.176;27.548;2022-08-24T17:38:02;28.90;59.70
48806;DHT22;34625;47.176;27.548;2022-08-24T17:40:29;29.00;60.20
48806;DHT22;34625;47.176;27.548;2022-08-24T17:42:56;28.90;59.70
48806;DHT22;34625;47.176;27.548;2022-08-24T17:45:23;28.80;59.70
48806;DHT22;34625;47.176;27.548;2022-08-24T17:47:50;29.00;60.30
48806;DHT22;34625;47.176;27.548;2022-08-24T17:50:18;29.00;60.30
48806;DHT22;34625;47.176;27.548;2022-08-24T17:52:45;28.80;59.80
48806;DHT22;34625;47.176;27.548;2022-08-24T17:55:12;28.80;59.80
48806;DHT22;34625;47.176;27.548;2022-08-24T17:57:39;28.90;59.80
48806;DHT22;34625;47.176;27.548;2022-08-24T18:00:08;28.80;59.80
48806;DHT22;34625;47.176;27.548;2022-08-24T18:02:38;28.80;59.80
48806;DHT22;34625;47.176;27.548;2022-08-24T18:05:06;28.80;59.80
48806;DHT22;34625;47.176;27.548;2022-08-24T18:07:33;29.00;60.30
48806;DHT22;34625;47.176;27.548;2022-08-24T18:10:02;28.90;59.80
48806;DHT22;34625;47.176;27.548;2022-08-24T18:12:29;28.80;59.70
48806;DHT22;34625;47.176;27.548;2022-08-24T18:14:55;28.80;59.70
48806;DHT22;34625;47.176;27.548;2022-08-24T18:17:29;29.00;60.30
48806;DHT22;34625;47.176;27.548;2022-08-24T18:19:57;29.00;60.30
48806;DHT22;34625;47.176;27.548;2022-08-24T18:22:23;29.00;60.30
48806;DHT22;34625;47.176;27.548;2022-08-24T18:24:49;29.00;60.30
48806;DHT22;34625;47.176;27.548;2022-08-24T18:27:27;28.90;59.70
48806;DHT22;34625;47.176;27.548;2022-08-24T18:29:57;28.90;59.70
48806;DHT22;34625;47.176;27.548;2022-08-24T18:32:25;28.90;59.60
48806;DHT22;34625;47.176;27.548;2022-08-24T18:34:51;28.90;59.70
48806;DHT22;34625;47.176;27.548;2022-08-24T18:37:17;29.00;60.30
48806;DHT22;34625;47.176;27.548;2022-08-24T18:39:43;28.90;59.70
48806;DHT22;34625;47.176;27.548;2022-08-24T18:42:10;28.80;59.60
48806;DHT22;34625;47.176;27.548;2022-08-24T18:44:38;28.90;59.60
48806;DHT22;34625;47.176;27.548;2022-08-24T18:47:05;28.80;59.60
48806;DHT22;34625;47.176;27.548;2022-08-24T18:49:32;28.90;59.60
48806;DHT22;34625;47.176;27.548;2022-08-24T18:51:59;28.80;59.70
48806;DHT22;34625;47.176;27.548;2022-08-24T18:54:34;28.80;59.70
48806;DHT22;34625;47.176;27.548;2022-08-24T18:57:01;28.90;59.80
48806;DHT22;34625;47.176;27.548;2022-08-24T18:59:28;28.90;59.80
48806;DHT22;34625;47.176;27.548;2022-08-24T19:01:54;28.80;59.80
48806;DHT22;34625;47.176;27.548;2022-08-24T19:04:44;28.90;59.80
48806;DHT22;34625;47.176;27.548;2022-08-24T19:07:10;28.90;59.80
48806;DHT22;34625;47.176;27.548;2022-08-24T19:09:37;28.90;59.80
48806;DHT22;34625;47.176;27.548;2022-08-24T19:12:04;28.90;59.80
48806;DHT22;34625;47.176;27.548;2022-08-24T19:14:32;28.90;59.80
48806;DHT22;34625;47.176;27.548;2022-08-24T19:16:58;28.90;59.80
48806;DHT22;34625;47.176;27.548;2022-08-24T19:19:24;28.80;59.80
48806;DHT22;34625;47.176;27.548;2022-08-24T19:21:51;29.00;60.20
48806;DHT22;34625;47.176;27.548;2022-08-24T19:24:22;28.90;59.70
48806;DHT22;34625;47.176;27.548;2022-08-24T19:26:48;29.00;60.20
48806;DHT22;34625;47.176;27.548;2022-08-24T19:29:14;28.90;59.60
48806;DHT22;34625;47.176;27.548;2022-08-24T19:31:40;29.00;60.20
48806;DHT22;34625;47.176;27.548;2022-08-24T19:34:07;28.80;59.60
48806;DHT22;34625;47.176;27.548;2022-08-24T19:36:33;28.80;59.60
48806;DHT22;34625;47.176;27.548;2022-08-24T19:38:59;28.90;59.60
48806;DHT22;34625;47.176;27.548;2022-08-24T19:41:25;28.80;59.50
48806;DHT22;34625;47.176;27.548;2022-08-24T19:43:53;28.80;59.60
48806;DHT22;34625;47.176;27.548;2022-08-24T19:46:39;28.90;59.60